Time;durP1;ratioP1;P1;durP2;ratioP2;P2;SDS_P1;SDS_P2;PMS_P1;PMS_P2;Temp;Humidity;BMP_temperature;BMP_pressure;BME280_temperature;BME280_humidity;BME280_pressure;Samples;Min_cycle;Max_cycle;Signal;HPM_P1;HPM_P2
2022/12/10 00:02:20;;;;;;;18.55;6.28;;;;;;;;;;5076113;28;20363;-77
2022/12/10 00:05:06;;;;;;;24.67;11.05;;;;;;;;;;5053960;28;20044;-78
2022/12/10 00:07:51;;;;;;;21.25;7.70;;;;;;;;;;5075968;28;20056;-76
2022/12/10 00:10:40;;;;;;;26.80;12.07;;;;;;;;;;5082864;28;20048;-76
2022/12/10 00:13:25;;;;;;;84.78;55.53;;;;;;;;;;5076286;28;20048;-76
2022/12/10 00:16:14;;;;;;;46.13;23.88;;;;;;;;;;5076115;28;20048;-80
2022/12/10 00:19:00;;;;;;;7.32;3.42;;;;;;;;;;5076169;28;20049;-80
2022/12/10 00:21:45;;;;;;;10.23;4.22;;;;;;;;;;5082266;28;20049;-80
2022/12/10 00:24:31;;;;;;;16.92;3.90;;;;;;;;;;5082581;28;20393;-81
2022/12/10 00:27:16;;;;;;;7.70;3.35;;;;;;;;;;5075941;28;20040;-81
2022/12/10 00:30:02;;;;;;;8.20;3.08;;;;;;;;;;5075312;28;20049;-77
2022/12/10 00:32:47;;;;;;;12.65;3.58;;;;;;;;;;5067549;28;20048;-77
2022/12/10 00:35:35;;;;;;;14.98;3.90;;;;;;;;;;5067196;28;20040;-80
2022/12/10 00:38:20;;;;;;;11.45;3.42;;;;;;;;;;5076142;28;20466;-77
2022/12/10 00:41:08;;;;;;;8.32;2.20;;;;;;;;;;5076186;28;20048;-81
2022/12/10 00:43:55;;;;;;;9.15;2.45;;;;;;;;;;5075300;28;20044;-80
2022/12/10 00:46:41;;;;;;;13.63;3.42;;;;;;;;;;5075460;28;20494;-81
2022/12/10 00:49:27;;;;;;;8.90;3.10;;;;;;;;;;5067179;28;20040;-82
2022/12/10 00:52:13;;;;;;;10.35;2.28;;;;;;;;;;5060696;28;20048;-81
2022/12/10 00:54:58;;;;;;;8.15;2.53;;;;;;;;;;5060519;28;20045;-81
2022/12/10 00:57:44;;;;;;;8.02;2.72;;;;;;;;;;5067009;28;20049;-82
2022/12/10 01:00:29;;;;;;;7.90;2.30;;;;;;;;;;5075070;28;20037;-80
2022/12/10 01:03:15;;;;;;;8.98;2.38;;;;;;;;;;5053056;28;20041;-80
2022/12/10 01:06:25;;;;;;;6.38;1.60;;;;;;;;;;5066742;28;20389;-83
2022/12/10 01:09:13;;;;;;;12.80;1.50;;;;;;;;;;5066395;28;20036;-82
2022/12/10 01:12:02;;;;;;;5.10;1.30;;;;;;;;;;5066671;28;20044;-82
2022/12/10 01:14:47;;;;;;;5.68;2.08;;;;;;;;;;5059860;28;20049;-81
2022/12/10 01:17:33;;;;;;;9.68;2.25;;;;;;;;;;5066563;28;20040;-81
2022/12/10 01:20:18;;;;;;;13.80;2.40;;;;;;;;;;5066256;28;20048;-81
2022/12/10 01:23:04;;;;;;;9.90;2.35;;;;;;;;;;5075117;28;20045;-81
2022/12/10 01:25:50;;;;;;;7.75;2.00;;;;;;;;;;5074733;28;20040;-81
2022/12/10 01:28:38;;;;;;;10.63;2.92;;;;;;;;;;5081642;28;20070;-83
2022/12/10 01:31:33;;;;;;;8.00;2.80;;;;;;;;;;5074571;28;20493;-82
2022/12/10 01:34:18;;;;;;;15.10;3.70;;;;;;;;;;5074598;28;20044;-81
2022/12/10 01:37:04;;;;;;;11.60;2.38;;;;;;;;;;5074688;28;20481;-85
2022/12/10 01:39:50;;;;;;;9.27;3.03;;;;;;;;;;5066152;28;20048;-82
2022/12/10 01:42:37;;;;;;;8.85;2.00;;;;;;;;;;5066207;28;20056;-82
2022/12/10 01:45:22;;;;;;;10.20;1.70;;;;;;;;;;5074500;28;20045;-82
2022/12/10 01:48:08;;;;;;;10.30;2.20;;;;;;;;;;5066121;28;20048;-84
2022/12/10 01:50:54;;;;;;;13.23;2.90;;;;;;;;;;5066055;28;20040;-81
2022/12/10 01:53:40;;;;;;;13.27;2.30;;;;;;;;;;5074203;28;20041;-81
2022/12/10 01:56:28;;;;;;;12.80;2.58;;;;;;;;;;5074292;28;20036;-81
2022/12/10 01:59:14;;;;;;;6.38;2.30;;;;;;;;;;5065974;28;20494;-81
2022/12/10 02:02:22;;;;;;;6.78;2.20;;;;;;;;;;5051489;28;20040;-81
2022/12/10 02:05:26;;;;;;;9.05;1.88;;;;;;;;;;5074049;28;20041;-81
2022/12/10 02:08:57;;;;;;;6.60;1.60;;;;;;;;;;5085176;28;20045;-80
2022/12/10 02:12:03;;;;;;;13.15;2.00;;;;;;;;;;5083418;28;20041;-80
2022/12/10 02:15:06;;;;;;;10.35;2.13;;;;;;;;;;5036970;28;20041;-81
2022/12/10 02:17:57;;;;;;;11.55;1.92;;;;;;;;;;5065523;28;20049;-81
2022/12/10 02:20:50;;;;;;;8.02;1.90;;;;;;;;;;5065587;28;20044;-80
2022/12/10 02:23:40;;;;;;;6.60;2.40;;;;;;;;;;5065658;28;20033;-80
2022/12/10 02:26:37;;;;;;;7.00;1.60;;;;;;;;;;5058576;28;20048;-80
2022/12/10 02:29:28;;;;;;;7.85;1.65;;;;;;;;;;5065938;28;20040;-80
2022/12/10 02:32:19;;;;;;;7.18;1.50;;;;;;;;;;5081495;28;20041;-81
2022/12/10 02:35:11;;;;;;;8.50;1.50;;;;;;;;;;5065271;28;20405;-82
2022/12/10 02:38:06;;;;;;;7.28;2.58;;;;;;;;;;5065011;28;20482;-81
2022/12/10 02:40:57;;;;;;;7.57;1.92;;;;;;;;;;5064963;28;20036;-81
2022/12/10 02:43:47;;;;;;;6.38;1.80;;;;;;;;;;5064702;28;20053;-81
2022/12/10 02:46:35;;;;;;;12.43;3.95;;;;;;;;;;5079974;28;20048;-81
2022/12/10 02:49:25;;;;;;;7.32;2.17;;;;;;;;;;5079897;28;20081;-80
2022/12/10 02:52:17;;;;;;;8.18;2.10;;;;;;;;;;5065193;28;20056;-80
2022/12/10 02:55:10;;;;;;;9.82;1.77;;;;;;;;;;5058655;28;20421;-80
2022/12/10 02:58:17;;;;;;;8.00;1.92;;;;;;;;;;5064840;28;20040;-80
2022/12/10 03:01:21;;;;;;;4.07;1.98;;;;;;;;;;5064965;28;20041;-81
2022/12/10 03:04:38;;;;;;;9.35;2.40;;;;;;;;;;5064577;28;20389;-80
2022/12/10 03:07:35;;;;;;;10.77;2.40;;;;;;;;;;5027243;28;20044;-80
2022/12/10 03:10:21;;;;;;;8.35;2.50;;;;;;;;;;5080158;28;20049;-80
2022/12/10 03:13:09;;;;;;;7.65;2.10;;;;;;;;;;5073345;28;20040;-80
2022/12/10 03:15:57;;;;;;;10.52;2.00;;;;;;;;;;5073073;28;20049;-81
2022/12/10 03:18:45;;;;;;;13.95;2.30;;;;;;;;;;5079776;28;20052;-81
2022/12/10 03:21:34;;;;;;;7.07;2.42;;;;;;;;;;5073262;28;20044;-81
2022/12/10 03:24:27;;;;;;;5.88;1.80;;;;;;;;;;5081393;28;20048;-80
2022/12/10 03:27:15;;;;;;;10.13;1.83;;;;;;;;;;5077643;28;20044;-80
2022/12/10 03:30:01;;;;;;;6.90;2.10;;;;;;;;;;5076883;28;20041;-80
2022/12/10 03:32:46;;;;;;;9.30;2.00;;;;;;;;;;5076756;28;20037;-80
2022/12/10 03:35:33;;;;;;;5.45;1.83;;;;;;;;;;5077034;28;20052;-80
2022/12/10 03:38:18;;;;;;;9.13;2.30;;;;;;;;;;5083598;28;20396;-81
2022/12/10 03:41:03;;;;;;;7.88;1.92;;;;;;;;;;5083272;28;20040;-80
2022/12/10 03:43:55;;;;;;;9.77;2.00;;;;;;;;;;5083521;28;20041;-80
2022/12/10 03:46:40;;;;;;;8.90;3.03;;;;;;;;;;5076583;28;20044;-80
2022/12/10 03:49:26;;;;;;;13.35;1.92;;;;;;;;;;5076510;28;20036;-80
2022/12/10 03:52:12;;;;;;;10.45;2.20;;;;;;;;;;5077037;28;20048;-80
2022/12/10 03:54:57;;;;;;;13.27;1.90;;;;;;;;;;5076636;28;20040;-80
2022/12/10 03:57:43;;;;;;;10.32;2.20;;;;;;;;;;5083483;28;20048;-84
2022/12/10 04:00:28;;;;;;;7.25;2.20;;;;;;;;;;5076456;28;20037;-80
2022/12/10 04:03:13;;;;;;;8.88;2.38;;;;;;;;;;5076454;28;20485;-81
2022/12/10 04:06:04;;;;;;;9.05;2.40;;;;;;;;;;5076127;28;20048;-80
2022/12/10 04:08:51;;;;;;;9.52;2.63;;;;;;;;;;5076586;28;20052;-80
2022/12/10 04:11:37;;;;;;;7.75;2.30;;;;;;;;;;5076185;28;20481;-80
2022/12/10 04:17:26;;;;;;;8.63;2.33;;;;;;;;;;5075962;28;20037;-81
2022/12/10 04:29:44;;;;;;;9.38;2.20;;;;;;;;;;5014404;28;20049;-81
2022/12/10 04:32:29;;;;;;;12.73;2.50;;;;;;;;;;5013894;28;20049;-80
2022/12/10 04:35:14;;;;;;;7.72;2.10;;;;;;;;;;5050606;28;20053;-81
2022/12/10 04:38:00;;;;;;;8.07;2.42;;;;;;;;;;5082217;28;20052;-81
2022/12/10 04:40:45;;;;;;;9.35;2.63;;;;;;;;;;5081489;28;20394;-81
2022/12/10 04:43:31;;;;;;;11.50;2.45;;;;;;;;;;5075336;28;20040;-82
2022/12/10 04:46:16;;;;;;;12.50;2.30;;;;;;;;;;5075322;28;20045;-82
2022/12/10 04:49:03;;;;;;;9.13;2.40;;;;;;;;;;5066807;28;20402;-82
2022/12/10 04:51:49;;;;;;;5.55;1.55;;;;;;;;;;5075615;28;20048;-81
2022/12/10 04:54:35;;;;;;;8.35;1.45;;;;;;;;;;5074947;28;20048;-81
2022/12/10 04:57:20;;;;;;;6.28;1.60;;;;;;;;;;5075178;28;20037;-81
2022/12/10 05:00:07;;;;;;;9.30;2.22;;;;;;;;;;5075120;28;20048;-80
2022/12/10 05:02:52;;;;;;;8.43;3.17;;;;;;;;;;5074865;28;20044;-82
2022/12/10 05:05:37;;;;;;;11.85;2.90;;;;;;;;;;5059972;28;20052;-80
2022/12/10 05:08:23;;;;;;;7.80;2.58;;;;;;;;;;5066611;28;20041;-80
2022/12/10 05:11:17;;;;;;;10.15;2.30;;;;;;;;;;5075309;28;20045;-80
2022/12/10 05:14:02;;;;;;;7.63;2.33;;;;;;;;;;5074917;28;20418;-81
2022/12/10 05:16:50;;;;;;;6.13;2.35;;;;;;;;;;5074848;28;20397;-81
2022/12/10 05:19:35;;;;;;;6.85;2.80;;;;;;;;;;5081887;28;20044;-82
2022/12/10 05:25:24;;;;;;;4.03;1.80;;;;;;;;;;5074700;28;20045;-81
2022/12/10 05:28:10;;;;;;;5.82;2.20;;;;;;;;;;5074684;28;20044;-82
2022/12/10 05:30:57;;;;;;;7.00;2.92;;;;;;;;;;5081301;28;20041;-81
2022/12/10 05:33:43;;;;;;;11.20;2.90;;;;;;;;;;5074767;28;20044;-81
2022/12/10 05:36:30;;;;;;;11.35;3.35;;;;;;;;;;5059375;28;20045;-81
2022/12/10 05:39:16;;;;;;;13.95;3.33;;;;;;;;;;5074507;28;20040;-82
2022/12/10 05:42:01;;;;;;;7.93;2.20;;;;;;;;;;5081001;28;20044;-83
2022/12/10 05:44:46;;;;;;;12.75;2.35;;;;;;;;;;5074092;28;20389;-82
2022/12/10 05:47:32;;;;;;;10.10;3.30;;;;;;;;;;5073092;28;20056;-82
2022/12/10 05:50:18;;;;;;;4.78;2.50;;;;;;;;;;5080955;28;20040;-82
2022/12/10 05:53:03;;;;;;;6.88;2.72;;;;;;;;;;5074081;28;20045;-85
2022/12/10 05:55:50;;;;;;;10.23;2.45;;;;;;;;;;5074769;28;20044;-83
2022/12/10 05:58:36;;;;;;;5.55;2.80;;;;;;;;;;5071278;28;20049;-83
2022/12/10 06:01:26;;;;;;;5.00;1.73;;;;;;;;;;5071213;28;20053;-82
2022/12/10 06:04:11;;;;;;;6.93;2.40;;;;;;;;;;5080839;28;20044;-83
2022/12/10 06:06:56;;;;;;;5.13;2.10;;;;;;;;;;5065809;28;20052;-83
2022/12/10 06:09:41;;;;;;;6.43;2.53;;;;;;;;;;5074158;28;20041;-83
2022/12/10 06:12:26;;;;;;;14.57;4.80;;;;;;;;;;5073904;28;20469;-84
2022/12/10 06:15:12;;;;;;;12.25;6.05;;;;;;;;;;5074344;28;20087;-83
2022/12/10 06:17:58;;;;;;;17.98;10.00;;;;;;;;;;5073447;28;20052;-83
2022/12/10 06:20:44;;;;;;;18.70;10.32;;;;;;;;;;5073657;28;20045;-83
2022/12/10 06:23:30;;;;;;;13.25;5.60;;;;;;;;;;5073926;28;20389;-83
2022/12/10 06:26:18;;;;;;;9.02;4.00;;;;;;;;;;5065173;28;20048;-83
2022/12/10 06:29:04;;;;;;;7.57;3.03;;;;;;;;;;5073622;28;20040;-83
2022/12/10 06:31:49;;;;;;;9.43;4.03;;;;;;;;;;5074014;28;20048;-83
2022/12/10 06:34:35;;;;;;;15.70;6.43;;;;;;;;;;5065827;28;20052;-82
2022/12/10 06:37:21;;;;;;;22.98;13.45;;;;;;;;;;5098368;28;20028;-81
2022/12/10 06:40:07;;;;;;;13.43;5.75;;;;;;;;;;5074690;28;20040;-84
2022/12/10 06:42:53;;;;;;;8.90;4.63;;;;;;;;;;5058047;28;20442;-83
2022/12/10 06:45:39;;;;;;;6.80;2.63;;;;;;;;;;5073550;28;20040;-82
2022/12/10 06:48:25;;;;;;;14.93;6.68;;;;;;;;;;5079983;28;20048;-82
2022/12/10 06:51:12;;;;;;;11.05;4.20;;;;;;;;;;5080370;28;20382;-81
2022/12/10 06:53:57;;;;;;;9.60;3.03;;;;;;;;;;5073118;28;20053;-81
2022/12/10 06:56:43;;;;;;;10.05;3.78;;;;;;;;;;5073034;28;20041;-80
2022/12/10 06:59:28;;;;;;;9.57;3.60;;;;;;;;;;5083197;28;20037;-80
2022/12/10 07:02:14;;;;;;;6.43;3.00;;;;;;;;;;5077172;28;20036;-79
2022/12/10 07:04:59;;;;;;;12.02;4.57;;;;;;;;;;5084090;28;20481;-80
2022/12/10 07:07:45;;;;;;;12.88;5.28;;;;;;;;;;5077134;28;20044;-80
2022/12/10 07:10:30;;;;;;;12.38;4.80;;;;;;;;;;5077139;28;20064;-81
2022/12/10 07:13:16;;;;;;;13.63;5.45;;;;;;;;;;5076276;28;20048;-81
2022/12/10 07:16:02;;;;;;;9.05;3.47;;;;;;;;;;5083600;28;20040;-80
2022/12/10 07:18:48;;;;;;;14.32;6.43;;;;;;;;;;5077491;28;20040;-80
2022/12/10 07:21:35;;;;;;;24.08;12.13;;;;;;;;;;5077207;28;20482;-81
2022/12/10 07:24:21;;;;;;;16.92;7.47;;;;;;;;;;5084146;28;20398;-79
2022/12/10 07:27:07;;;;;;;12.75;5.15;;;;;;;;;;5077012;28;20485;-80
2022/12/10 07:29:53;;;;;;;11.75;5.13;;;;;;;;;;5076735;28;20041;-81
2022/12/10 07:32:38;;;;;;;19.23;6.55;;;;;;;;;;5076746;28;20394;-81
2022/12/10 07:35:25;;;;;;;20.73;9.48;;;;;;;;;;5077152;28;20040;-83
2022/12/10 07:38:10;;;;;;;21.73;10.95;;;;;;;;;;5077317;28;20485;-78
2022/12/10 07:40:56;;;;;;;31.17;12.70;;;;;;;;;;5077724;28;20477;-74
2022/12/10 07:43:44;;;;;;;14.63;5.80;;;;;;;;;;5076844;28;20041;-77
2022/12/10 07:46:31;;;;;;;13.50;6.80;;;;;;;;;;5076794;28;20044;-75
2022/12/10 07:49:17;;;;;;;10.38;6.10;;;;;;;;;;5076904;28;20036;-76
2022/12/10 07:52:03;;;;;;;12.27;6.07;;;;;;;;;;5077282;28;20052;-79
2022/12/10 07:54:48;;;;;;;17.15;6.53;;;;;;;;;;5077907;28;20032;-79
2022/12/10 07:57:34;;;;;;;13.98;6.05;;;;;;;;;;5077089;28;20485;-78
2022/12/10 08:00:19;;;;;;;29.98;12.40;;;;;;;;;;5076201;28;20390;-76
2022/12/10 08:03:05;;;;;;;18.20;8.13;;;;;;;;;;5075987;28;20037;-78
2022/12/10 08:06:05;;;;;;;21.15;6.20;;;;;;;;;;5076066;28;20048;-76
2022/12/10 08:08:51;;;;;;;12.55;5.35;;;;;;;;;;5067999;28;20052;-75
2022/12/10 08:11:36;;;;;;;13.98;5.40;;;;;;;;;;5074921;28;20056;-74
2022/12/10 08:14:22;;;;;;;12.07;4.65;;;;;;;;;;5067055;28;20514;-75
2022/12/10 08:17:08;;;;;;;18.40;5.45;;;;;;;;;;5081388;28;20393;-75
2022/12/10 08:19:54;;;;;;;10.35;5.78;;;;;;;;;;5075675;28;20053;-75
2022/12/10 08:22:40;;;;;;;10.38;5.28;;;;;;;;;;5075857;28;20493;-75
2022/12/10 08:25:26;;;;;;;12.10;5.18;;;;;;;;;;5075060;28;20044;-75
2022/12/10 08:28:12;;;;;;;12.98;5.05;;;;;;;;;;5075693;28;20044;-76
2022/12/10 08:30:57;;;;;;;22.42;5.20;;;;;;;;;;5082699;28;20048;-76
2022/12/10 08:33:43;;;;;;;11.32;4.95;;;;;;;;;;5075913;28;20052;-80
2022/12/10 08:36:30;;;;;;;14.95;6.70;;;;;;;;;;5075510;28;20048;-80
2022/12/10 08:39:16;;;;;;;9.90;5.68;;;;;;;;;;5075633;28;20040;-80
2022/12/10 08:42:01;;;;;;;18.25;6.65;;;;;;;;;;5075245;28;20040;-80
2022/12/10 08:44:46;;;;;;;19.30;6.05;;;;;;;;;;5074857;28;20484;-78
2022/12/10 08:47:32;;;;;;;16.25;6.43;;;;;;;;;;5074129;28;20044;-78
2022/12/10 08:50:17;;;;;;;17.30;6.30;;;;;;;;;;5085768;28;20045;-75
2022/12/10 08:53:03;;;;;;;15.98;6.45;;;;;;;;;;5082570;28;20048;-75
2022/12/10 08:55:53;;;;;;;16.90;6.88;;;;;;;;;;5074465;28;20040;-77
2022/12/10 08:58:39;;;;;;;14.32;5.40;;;;;;;;;;5082027;28;20052;-78
2022/12/10 09:01:24;;;;;;;11.52;6.38;;;;;;;;;;5081652;28;20053;-78
2022/12/10 09:04:10;;;;;;;12.13;6.03;;;;;;;;;;5075049;28;20041;-77
2022/12/10 09:06:55;;;;;;;24.23;8.05;;;;;;;;;;5081419;28;20044;-76
2022/12/10 09:09:40;;;;;;;16.23;5.72;;;;;;;;;;5081927;28;20037;-77
2022/12/10 09:12:26;;;;;;;12.63;6.95;;;;;;;;;;5081662;28;20401;-76
2022/12/10 09:15:12;;;;;;;13.98;6.45;;;;;;;;;;5074524;28;20040;-77
2022/12/10 09:17:58;;;;;;;20.00;9.27;;;;;;;;;;5081524;28;20390;-77
2022/12/10 09:20:43;;;;;;;15.45;7.22;;;;;;;;;;5074621;28;20040;-77
2022/12/10 09:23:29;;;;;;;19.20;7.75;;;;;;;;;;5073934;28;20036;-76
2022/12/10 09:26:16;;;;;;;19.25;7.75;;;;;;;;;;5074807;28;20048;-78
2022/12/10 09:29:01;;;;;;;15.77;8.23;;;;;;;;;;5081239;28;20049;-78
2022/12/10 09:31:50;;;;;;;16.80;6.90;;;;;;;;;;5081321;28;20045;-76
2022/12/10 09:34:36;;;;;;;15.15;7.03;;;;;;;;;;5081037;28;20036;-78
2022/12/10 09:37:22;;;;;;;17.40;8.27;;;;;;;;;;5074580;28;20048;-79
2022/12/10 09:40:10;;;;;;;13.93;7.47;;;;;;;;;;5080899;28;20044;-78
2022/12/10 09:43:14;;;;;;;17.77;7.32;;;;;;;;;;5074015;28;20041;-77
2022/12/10 09:46:29;;;;;;;14.10;7.03;;;;;;;;;;5074147;28;20048;-79
2022/12/10 09:49:30;;;;;;;13.50;6.57;;;;;;;;;;5080669;28;20056;-77
2022/12/10 09:52:20;;;;;;;17.13;6.95;;;;;;;;;;5080522;28;20350;-77
2022/12/10 09:55:17;;;;;;;9.27;4.50;;;;;;;;;;5073238;28;20409;-77
2022/12/10 09:58:05;;;;;;;12.35;4.38;;;;;;;;;;5073365;28;20048;-79
2022/12/10 10:01:14;;;;;;;10.40;2.90;;;;;;;;;;5073564;28;20040;-79
2022/12/10 10:03:58;;;;;;;9.25;2.97;;;;;;;;;;5080304;28;20045;-79
2022/12/10 10:06:44;;;;;;;11.65;3.20;;;;;;;;;;5080380;28;20044;-79
2022/12/10 10:09:35;;;;;;;10.52;2.60;;;;;;;;;;5074160;28;20052;-79
2022/12/10 10:12:20;;;;;;;10.52;5.45;;;;;;;;;;5080693;28;20048;-77
2022/12/10 10:15:16;;;;;;;17.23;6.05;;;;;;;;;;5073778;28;20041;-78
2022/12/10 10:18:21;;;;;;;17.48;7.32;;;;;;;;;;5073797;28;20040;-75
2022/12/10 10:21:21;;;;;;;14.02;5.97;;;;;;;;;;5065477;28;20045;-79
2022/12/10 10:24:14;;;;;;;14.45;5.25;;;;;;;;;;5073639;28;20048;-79
2022/12/10 10:27:13;;;;;;;9.40;4.75;;;;;;;;;;5080151;28;20513;-77
2022/12/10 10:30:03;;;;;;;14.57;6.28;;;;;;;;;;5073454;28;20044;-78
2022/12/10 10:32:51;;;;;;;11.35;6.28;;;;;;;;;;5079916;28;20140;-78
2022/12/10 10:35:49;;;;;;;6.18;3.45;;;;;;;;;;5080514;28;20048;-77
2022/12/10 10:38:34;;;;;;;7.68;4.00;;;;;;;;;;5073584;28;20037;-77
2022/12/10 10:41:20;;;;;;;10.15;4.15;;;;;;;;;;5073813;28;20044;-78
2022/12/10 10:44:14;;;;;;;15.27;6.43;;;;;;;;;;5073512;28;20036;-78
2022/12/10 10:46:59;;;;;;;7.10;3.88;;;;;;;;;;5073718;28;20052;-79
2022/12/10 10:49:45;;;;;;;15.38;6.40;;;;;;;;;;5073563;28;20127;-79
2022/12/10 10:52:38;;;;;;;10.63;5.75;;;;;;;;;;5073638;28;20057;-77
2022/12/10 10:55:36;;;;;;;9.50;5.63;;;;;;;;;;5073478;28;20044;-78
2022/12/10 10:58:23;;;;;;;9.40;3.80;;;;;;;;;;5058599;28;20036;-77
2022/12/10 11:01:08;;;;;;;7.43;2.90;;;;;;;;;;5073149;28;20041;-80
2022/12/10 11:03:57;;;;;;;8.10;2.80;;;;;;;;;;5081376;28;20032;-78
2022/12/10 11:06:43;;;;;;;5.10;1.88;;;;;;;;;;5089883;28;20032;-78
2022/12/10 11:09:32;;;;;;;7.50;2.15;;;;;;;;;;5073283;28;20044;-79
2022/12/10 11:12:45;;;;;;;6.80;2.47;;;;;;;;;;5073185;28;20048;-77
2022/12/10 11:15:35;;;;;;;10.95;4.55;;;;;;;;;;5079919;28;20048;-76
2022/12/10 11:18:24;;;;;;;14.43;7.13;;;;;;;;;;5073098;28;20041;-78
2022/12/10 11:21:12;;;;;;;9.55;4.07;;;;;;;;;;5072858;28;20052;-76
2022/12/10 11:23:58;;;;;;;9.30;2.17;;;;;;;;;;5072684;28;20049;-78
2022/12/10 11:27:13;;;;;;;21.67;8.68;;;;;;;;;;5072890;28;20041;-77
2022/12/10 11:30:05;;;;;;;29.27;11.10;;;;;;;;;;5073123;28;20398;-78
2022/12/10 11:33:32;;;;;;;17.80;4.47;;;;;;;;;;5073113;28;20052;-76
2022/12/10 11:37:15;;;;;;;18.10;7.65;;;;;;;;;;5023467;28;20040;-78
2022/12/10 11:40:09;;;;;;;19.67;5.47;;;;;;;;;;4991878;28;20050;-79
2022/12/10 11:43:04;;;;;;;;;;;;;;;;;;4991869;28;20042;-76
2022/12/10 11:45:55;;;;;;;15.93;6.70;;;;;;;;;;5073317;28;19916;-78
2022/12/10 11:48:55;;;;;;;23.20;7.85;;;;;;;;;;5076615;28;20048;-78
2022/12/10 11:52:02;;;;;;;20.05;6.15;;;;;;;;;;5083225;28;20052;-75
2022/12/10 11:54:53;;;;;;;24.35;9.13;;;;;;;;;;5075979;28;20045;-76
2022/12/10 11:57:51;;;;;;;15.02;5.10;;;;;;;;;;5076430;28;20044;-77
2022/12/10 12:00:55;;;;;;;15.27;3.97;;;;;;;;;;5076592;28;20040;-78
2022/12/10 12:04:08;;;;;;;19.65;4.47;;;;;;;;;;5082606;28;20040;-78
2022/12/10 12:07:15;;;;;;;23.02;9.55;;;;;;;;;;5082716;28;20048;-79
2022/12/10 12:10:29;;;;;;;17.15;4.55;;;;;;;;;;5082954;28;20056;-78
2022/12/10 12:13:20;;;;;;;19.55;7.70;;;;;;;;;;5036499;28;20389;-77
2022/12/10 12:16:19;;;;;;;13.05;5.22;;;;;;;;;;5075732;28;20037;-75
2022/12/10 12:19:12;;;;;;;23.85;6.95;;;;;;;;;;5075847;28;20053;-75
2022/12/10 12:22:02;;;;;;;32.22;9.68;;;;;;;;;;5075755;28;20037;-78
2022/12/10 12:24:48;;;;;;;21.02;6.05;;;;;;;;;;5076003;28;20048;-77
2022/12/10 12:27:46;;;;;;;20.33;5.18;;;;;;;;;;5082749;28;20053;-78
2022/12/10 12:30:35;;;;;;;30.98;9.27;;;;;;;;;;5082581;28;20052;-78
2022/12/10 12:33:53;;;;;;;16.10;4.43;;;;;;;;;;5075620;28;20393;-77
2022/12/10 12:36:39;;;;;;;18.63;4.85;;;;;;;;;;5082050;28;20478;-77
2022/12/10 12:39:36;;;;;;;25.33;7.25;;;;;;;;;;5075682;28;20028;-78
2022/12/10 12:42:36;;;;;;;24.48;6.00;;;;;;;;;;5075148;28;20044;-77
2022/12/10 12:45:32;;;;;;;20.50;5.47;;;;;;;;;;5075379;28;20045;-78
2022/12/10 12:48:41;;;;;;;22.42;5.78;;;;;;;;;;5075394;28;20041;-75
2022/12/10 12:51:36;;;;;;;38.58;13.40;;;;;;;;;;5074077;28;20040;-79
2022/12/10 12:54:22;;;;;;;39.45;13.70;;;;;;;;;;5074479;28;20421;-75
2022/12/10 12:57:18;;;;;;;48.30;18.42;;;;;;;;;;5074782;28;20044;-78
2022/12/10 13:00:18;;;;;;;31.67;9.02;;;;;;;;;;5075223;28;20048;-78
2022/12/10 13:03:39;;;;;;;22.10;6.43;;;;;;;;;;5075299;28;20036;-79
2022/12/10 13:06:28;;;;;;;15.15;4.63;;;;;;;;;;5049714;28;20044;-78
2022/12/10 13:09:12;;;;;;;22.52;4.80;;;;;;;;;;5075414;28;20040;-78
2022/12/10 13:12:03;;;;;;;34.13;9.52;;;;;;;;;;5074392;28;20041;-76
2022/12/10 13:14:52;;;;;;;29.33;9.75;;;;;;;;;;5074772;28;20041;-77
2022/12/10 13:17:38;;;;;;;19.80;8.00;;;;;;;;;;5088975;28;20032;-77
2022/12/10 13:20:26;;;;;;;30.95;11.35;;;;;;;;;;5093504;28;20440;-76
2022/12/10 13:23:24;;;;;;;20.25;8.85;;;;;;;;;;5075164;28;20044;-75
2022/12/10 13:26:27;;;;;;;21.00;7.80;;;;;;;;;;5074727;28;20040;-76
2022/12/10 13:29:23;;;;;;;24.58;8.45;;;;;;;;;;5074702;28;20489;-76
2022/12/10 13:32:42;;;;;;;25.85;10.57;;;;;;;;;;5081262;28;20482;-77
2022/12/10 13:35:31;;;;;;;27.55;9.20;;;;;;;;;;5081540;28;20036;-77
2022/12/10 13:38:24;;;;;;;24.48;8.85;;;;;;;;;;5074926;28;20052;-77
2022/12/10 13:44:25;;;;;;;25.58;7.38;;;;;;;;;;5079037;28;20393;-77
2022/12/10 13:47:10;;;;;;;27.77;10.52;;;;;;;;;;5076083;28;20044;-76
2022/12/10 13:49:58;;;;;;;43.50;15.77;;;;;;;;;;5081330;28;20048;-76
2022/12/10 13:52:55;;;;;;;34.88;10.75;;;;;;;;;;5084395;28;20056;-77
2022/12/10 13:56:00;;;;;;;16.05;6.22;;;;;;;;;;5077669;28;20048;-76
2022/12/10 13:59:07;;;;;;;22.83;7.63;;;;;;;;;;5074904;28;20048;-76
2022/12/10 14:02:28;;;;;;;19.80;9.32;;;;;;;;;;5074621;28;20405;-76
2022/12/10 14:05:40;;;;;;;36.80;14.82;;;;;;;;;;5074539;28;20048;-77
2022/12/10 14:08:30;;;;;;;18.88;7.32;;;;;;;;;;5079495;28;20509;-76
2022/12/10 14:11:22;;;;;;;14.68;6.78;;;;;;;;;;5072972;28;20044;-77
2022/12/10 14:14:13;;;;;;;17.98;6.65;;;;;;;;;;5072344;28;20048;-78
2022/12/10 14:17:17;;;;;;;16.85;7.40;;;;;;;;;;5079449;28;20478;-78
2022/12/10 14:20:06;;;;;;;28.08;7.75;;;;;;;;;;5074808;28;20044;-77
2022/12/10 14:23:32;;;;;;;20.38;5.95;;;;;;;;;;5079772;28;20525;-77
2022/12/10 14:26:11;;;;;;;21.85;9.07;;;;;;;;;;5073217;28;20044;-77
2022/12/10 14:29:06;;;;;;;27.60;9.80;;;;;;;;;;5073777;28;20033;-78
2022/12/10 14:31:51;;;;;;;20.48;6.32;;;;;;;;;;5073340;28;20066;-78
2022/12/10 14:34:37;;;;;;;18.00;7.25;;;;;;;;;;5081201;28;20048;-77
2022/12/10 14:37:29;;;;;;;18.38;7.20;;;;;;;;;;5075155;28;20044;-78
2022/12/10 14:40:28;;;;;;;26.25;7.75;;;;;;;;;;5073653;28;20048;-81
2022/12/10 14:43:18;;;;;;;22.48;10.90;;;;;;;;;;5080698;28;20049;-81
2022/12/10 14:46:12;;;;;;;24.55;11.38;;;;;;;;;;5073859;28;20048;-82
2022/12/10 14:48:57;;;;;;;16.85;7.85;;;;;;;;;;5065847;28;20045;-77
2022/12/10 14:51:42;;;;;;;23.23;8.23;;;;;;;;;;5073371;28;20052;-78
2022/12/10 14:54:34;;;;;;;19.50;8.32;;;;;;;;;;5073109;28;20044;-77
2022/12/10 14:57:30;;;;;;;21.17;10.00;;;;;;;;;;5079886;28;20494;-76
2022/12/10 15:00:20;;;;;;;31.70;11.82;;;;;;;;;;5074120;28;20052;-79
2022/12/10 15:03:11;;;;;;;19.98;9.50;;;;;;;;;;5073227;28;20045;-77
2022/12/10 15:05:59;;;;;;;22.33;9.07;;;;;;;;;;5079841;28;20045;-78
2022/12/10 15:08:47;;;;;;;26.58;9.80;;;;;;;;;;5083372;28;20505;-78
2022/12/10 15:11:32;;;;;;;32.08;10.73;;;;;;;;;;5073177;28;20040;-78
2022/12/10 15:14:20;;;;;;;29.17;12.35;;;;;;;;;;5073016;28;20049;-80
2022/12/10 15:17:42;;;;;;;36.47;13.00;;;;;;;;;;5073203;28;20040;-76
2022/12/10 15:20:31;;;;;;;32.00;11.77;;;;;;;;;;5075978;28;20052;-76
2022/12/10 15:23:43;;;;;;;38.67;15.48;;;;;;;;;;5077383;28;20041;-77
2022/12/10 15:26:32;;;;;;;25.17;10.55;;;;;;;;;;5076688;28;20048;-74
2022/12/10 15:29:25;;;;;;;19.80;10.18;;;;;;;;;;5068454;28;20040;-75
2022/12/10 15:32:32;;;;;;;26.85;12.13;;;;;;;;;;5100032;28;20048;-78
2022/12/10 15:35:21;;;;;;;27.10;11.68;;;;;;;;;;5085524;28;20365;-75
2022/12/10 15:38:13;;;;;;;23.77;10.02;;;;;;;;;;5084650;28;20044;-76
2022/12/10 15:41:21;;;;;;;22.52;11.18;;;;;;;;;;5076183;28;20056;-74
2022/12/10 15:44:34;;;;;;;45.45;33.10;;;;;;;;;;5076477;28;20045;-74
2022/12/10 15:47:25;;;;;;;20.23;10.68;;;;;;;;;;5076582;28;20036;-75
2022/12/10 15:50:10;;;;;;;30.98;13.15;;;;;;;;;;5076678;28;20044;-75
2022/12/10 15:52:55;;;;;;;23.27;10.60;;;;;;;;;;5076658;28;20053;-76
2022/12/10 15:55:41;;;;;;;19.52;8.57;;;;;;;;;;5076926;28;20049;-76
2022/12/10 15:58:26;;;;;;;27.70;10.05;;;;;;;;;;5076356;28;20420;-76
2022/12/10 16:01:13;;;;;;;20.65;9.20;;;;;;;;;;5075956;28;20067;-76
2022/12/10 16:03:58;;;;;;;18.73;9.73;;;;;;;;;;5076619;28;20040;-77
2022/12/10 16:06:44;;;;;;;25.80;10.82;;;;;;;;;;5076168;28;20056;-78
2022/12/10 16:09:29;;;;;;;22.50;10.45;;;;;;;;;;5083096;28;20048;-76
2022/12/10 16:12:17;;;;;;;29.45;11.38;;;;;;;;;;5082909;28;20393;-78
2022/12/10 16:15:04;;;;;;;20.38;9.65;;;;;;;;;;5076056;28;20036;-78
2022/12/10 16:17:50;;;;;;;20.20;9.77;;;;;;;;;;5083206;28;20040;-78
2022/12/10 16:20:35;;;;;;;19.25;8.85;;;;;;;;;;5075834;28;20036;-78
2022/12/10 16:23:20;;;;;;;31.17;13.10;;;;;;;;;;5082589;28;20037;-76
2022/12/10 16:26:15;;;;;;;33.75;16.27;;;;;;;;;;5076162;28;20041;-76
2022/12/10 16:29:01;;;;;;;24.15;10.85;;;;;;;;;;5075732;28;20048;-76
2022/12/10 16:31:46;;;;;;;23.75;11.30;;;;;;;;;;5075095;28;20373;-76
2022/12/10 16:34:32;;;;;;;25.75;11.63;;;;;;;;;;5075979;28;20048;-76
2022/12/10 16:37:17;;;;;;;32.17;18.05;;;;;;;;;;5075810;28;20040;-78
2022/12/10 16:40:03;;;;;;;32.40;15.15;;;;;;;;;;5082483;28;20045;-78
2022/12/10 16:42:51;;;;;;;28.33;14.88;;;;;;;;;;5075575;28;20393;-78
2022/12/10 16:45:38;;;;;;;26.25;12.35;;;;;;;;;;5082251;28;20040;-77
2022/12/10 16:48:24;;;;;;;32.95;12.82;;;;;;;;;;5082571;28;20044;-78
2022/12/10 16:51:23;;;;;;;34.45;15.93;;;;;;;;;;5075609;28;20048;-77
2022/12/10 16:54:13;;;;;;;18.55;9.23;;;;;;;;;;5075394;28;20049;-78
2022/12/10 16:56:59;;;;;;;15.80;6.75;;;;;;;;;;5074472;28;20041;-78
2022/12/10 16:59:44;;;;;;;13.43;6.45;;;;;;;;;;5074241;28;20044;-77
2022/12/10 17:02:30;;;;;;;13.48;6.20;;;;;;;;;;5074835;28;20048;-77
2022/12/10 17:05:20;;;;;;;14.00;5.20;;;;;;;;;;5075175;28;20049;-77
2022/12/10 17:08:06;;;;;;;42.30;22.25;;;;;;;;;;5074514;28;20366;-76